Time;durP1;ratioP1;P1;durP2;ratioP2;P2;SDS_P1;SDS_P2;PMS_P1;PMS_P2;Temp;Humidity;BMP_temperature;BMP_pressure;BME280_temperature;BME280_humidity;BME280_pressure;Samples;Min_cycle;Max_cycle;Signal;HPM_P1;HPM_P2
2024/02/29 00:00:22;;;;;;;13.20;7.75;;;7.20;99.90;;;;;;4092197;28;20035;-70
2024/02/29 00:02:22;;;;;;;13.15;7.68;;;7.20;99.90;;;;;;4091167;28;20135;-72
2024/02/29 00:04:28;;;;;;;15.77;8.15;;;7.10;99.90;;;;;;4091514;28;20405;-70
2024/02/29 00:06:29;;;;;;;12.65;7.18;;;7.10;99.90;;;;;;4090235;28;20114;-71
2024/02/29 00:08:29;;;;;;;16.48;8.50;;;7.20;99.90;;;;;;4083216;29;20103;-69
2024/02/29 00:10:30;;;;;;;15.07;7.40;;;7.10;99.90;;;;;;4093259;28;20031;-69
2024/02/29 00:12:31;;;;;;;15.75;8.20;;;7.10;99.90;;;;;;4087178;28;20043;-69
2024/02/29 00:14:34;;;;;;;18.00;9.13;;;7.10;99.90;;;;;;4077314;29;20071;-72
2024/02/29 00:16:35;;;;;;;15.88;8.88;;;7.10;99.90;;;;;;4093275;28;20058;-70
2024/02/29 00:18:36;;;;;;;16.27;9.00;;;7.00;99.90;;;;;;4093760;28;20031;-70
2024/02/29 00:20:36;;;;;;;15.48;8.95;;;7.00;99.90;;;;;;4093982;28;20537;-69
2024/02/29 00:22:38;;;;;;;14.75;8.50;;;7.00;99.90;;;;;;4078710;29;20561;-70
2024/02/29 00:24:38;;;;;;;19.35;9.70;;;7.00;99.90;;;;;;4099285;28;20412;-73
2024/02/29 00:26:39;;;;;;;16.60;8.65;;;7.00;99.90;;;;;;4083203;29;20032;-71
2024/02/29 00:28:40;;;;;;;16.83;9.13;;;7.00;99.90;;;;;;4092482;28;20043;-72
2024/02/29 00:30:40;;;;;;;17.52;8.75;;;7.00;99.90;;;;;;4058947;29;20128;-69
2024/02/29 00:32:41;;;;;;;15.32;8.50;;;7.00;99.90;;;;;;4091870;28;20477;-70
2024/02/29 00:34:41;;;;;;;19.98;9.18;;;6.90;99.90;;;;;;4095361;28;20039;-70
2024/02/29 00:36:42;;;;;;;19.70;10.18;;;6.90;99.90;;;;;;4092801;28;20042;-70
2024/02/29 00:38:44;;;;;;;18.50;10.60;;;6.90;99.90;;;;;;4077654;28;20115;-70
2024/02/29 00:40:45;;;;;;;20.90;11.15;;;6.90;99.90;;;;;;4092606;28;20032;-69
2024/02/29 00:42:45;;;;;;;16.75;9.35;;;6.80;99.90;;;;;;4102179;28;20050;-70
2024/02/29 00:44:46;;;;;;;17.33;10.00;;;6.80;99.90;;;;;;4088345;28;20050;-71
2024/02/29 00:46:47;;;;;;;18.02;10.35;;;6.80;99.90;;;;;;4096909;28;20122;-70
2024/02/29 00:48:47;;;;;;;20.20;10.35;;;6.80;99.90;;;;;;4089994;28;20035;-69
2024/02/29 00:50:48;;;;;;;17.77;9.60;;;6.70;99.90;;;;;;4092948;28;20051;-70
2024/02/29 00:52:48;;;;;;;20.33;10.88;;;6.70;99.90;;;;;;4094272;28;20038;-70
2024/02/29 00:54:49;;;;;;;20.02;11.15;;;6.70;99.90;;;;;;4094544;28;20031;-70
2024/02/29 00:56:50;;;;;;;18.58;10.15;;;6.70;99.90;;;;;;4093880;28;20043;-70
2024/02/29 00:58:51;;;;;;;16.65;9.40;;;6.70;99.90;;;;;;4093670;28;20042;-70
2024/02/29 01:00:51;;;;;;;17.17;9.77;;;6.60;99.90;;;;;;4096316;28;20477;-69
2024/02/29 01:02:52;;;;;;;19.48;10.45;;;6.60;99.90;;;;;;4094419;28;20035;-70
2024/02/29 01:04:53;;;;;;;21.02;10.27;;;6.60;99.90;;;;;;4081688;29;20056;-70
2024/02/29 01:06:53;;;;;;;18.00;9.38;;;6.50;99.90;;;;;;4092876;28;20099;-70
2024/02/29 01:08:54;;;;;;;18.50;9.52;;;6.50;99.90;;;;;;4094115;28;20098;-71
2024/02/29 01:10:55;;;;;;;22.15;10.40;;;6.60;99.90;;;;;;4094607;28;20035;-70
2024/02/29 01:12:56;;;;;;;17.35;9.73;;;6.50;99.90;;;;;;4092688;28;20050;-70
2024/02/29 01:14:57;;;;;;;19.30;10.03;;;6.50;99.90;;;;;;4078705;29;20062;-71
2024/02/29 01:16:58;;;;;;;17.15;9.30;;;6.50;99.90;;;;;;4095063;28;20027;-70
2024/02/29 01:19:00;;;;;;;19.70;10.00;;;6.50;99.90;;;;;;4095507;28;20038;-70
2024/02/29 01:21:01;;;;;;;16.88;9.07;;;6.50;99.90;;;;;;4091130;28;20547;-71
2024/02/29 01:23:01;;;;;;;17.50;9.23;;;6.50;99.90;;;;;;4083328;29;20058;-71
2024/02/29 01:25:03;;;;;;;19.05;9.68;;;6.50;99.90;;;;;;4095425;28;20063;-70
2024/02/29 01:27:04;;;;;;;19.67;8.90;;;6.40;99.90;;;;;;4095730;28;20043;-71
2024/02/29 01:29:04;;;;;;;16.30;9.68;;;6.50;99.90;;;;;;4098211;28;20067;-69
2024/02/29 01:31:05;;;;;;;16.08;8.95;;;6.40;99.90;;;;;;4097004;28;20066;-70
2024/02/29 01:33:06;;;;;;;17.88;10.23;;;6.50;99.90;;;;;;4096748;28;20148;-71
2024/02/29 01:35:07;;;;;;;17.60;9.60;;;6.40;99.90;;;;;;4096934;28;20035;-70
2024/02/29 01:37:08;;;;;;;17.90;9.20;;;6.40;99.90;;;;;;4096322;28;20112;-71
2024/02/29 01:39:08;;;;;;;16.20;9.35;;;6.40;99.90;;;;;;4097891;28;20043;-71
2024/02/29 01:41:09;;;;;;;17.55;9.02;;;6.40;99.90;;;;;;4094838;28;20041;-72
2024/02/29 01:43:10;;;;;;;14.80;8.77;;;6.40;99.90;;;;;;4096236;28;20050;-70
2024/02/29 01:45:13;;;;;;;16.92;9.32;;;6.40;99.90;;;;;;4096767;28;20481;-70
2024/02/29 01:47:14;;;;;;;16.55;9.07;;;6.40;99.90;;;;;;4096504;28;20516;-70
2024/02/29 01:49:16;;;;;;;15.63;8.73;;;6.40;99.90;;;;;;4096585;28;20040;-69
2024/02/29 01:51:19;;;;;;;16.02;9.00;;;6.40;99.90;;;;;;4096201;28;20513;-71
2024/02/29 01:53:20;;;;;;;13.18;8.25;;;6.40;99.90;;;;;;4094090;28;20118;-71
2024/02/29 01:55:21;;;;;;;14.00;7.90;;;6.40;99.90;;;;;;4093712;28;20098;-70
2024/02/29 01:57:22;;;;;;;16.52;9.18;;;6.40;99.90;;;;;;4093422;28;20035;-71
2024/02/29 01:59:24;;;;;;;15.25;8.50;;;6.30;99.90;;;;;;4096186;28;20114;-70
2024/02/29 02:01:25;;;;;;;15.52;7.40;;;6.30;99.90;;;;;;4094124;28;20040;-72
2024/02/29 02:03:26;;;;;;;12.98;7.63;;;6.30;99.90;;;;;;4094579;28;20041;-70
2024/02/29 02:05:27;;;;;;;15.77;8.63;;;6.30;99.90;;;;;;4094522;28;20461;-71
2024/02/29 02:07:28;;;;;;;13.65;7.70;;;6.40;99.90;;;;;;4097193;28;20106;-72
2024/02/29 02:09:29;;;;;;;15.43;8.48;;;6.30;99.90;;;;;;4096846;28;20149;-70
2024/02/29 02:11:29;;;;;;;12.75;7.70;;;6.30;99.90;;;;;;4093411;28;20031;-70
2024/02/29 02:13:30;;;;;;;13.80;7.95;;;6.30;99.90;;;;;;4095633;28;20036;-66
2024/02/29 02:15:30;;;;;;;13.15;7.88;;;6.30;99.90;;;;;;4095355;28;20401;-67
2024/02/29 02:17:32;;;;;;;14.40;7.60;;;6.30;99.90;;;;;;4095791;28;20031;-67
2024/02/29 02:19:32;;;;;;;17.13;7.72;;;6.30;99.90;;;;;;4092727;28;20034;-67
2024/02/29 02:21:33;;;;;;;12.75;7.60;;;6.30;99.90;;;;;;4095188;28;20043;-67
2024/02/29 02:23:34;;;;;;;11.60;7.13;;;6.30;99.90;;;;;;4098406;28;20388;-66
2024/02/29 02:25:34;;;;;;;15.45;7.70;;;6.20;99.90;;;;;;4093974;28;20491;-66
2024/02/29 02:27:37;;;;;;;12.20;7.05;;;6.30;99.90;;;;;;4094734;28;20101;-67
2024/02/29 02:29:38;;;;;;;14.57;7.15;;;6.20;99.90;;;;;;4094930;28;20052;-68
2024/02/29 02:31:38;;;;;;;11.23;6.75;;;6.20;99.90;;;;;;4099970;28;20422;-67
2024/02/29 02:33:39;;;;;;;15.02;7.63;;;6.10;99.90;;;;;;4096496;28;20405;-67
2024/02/29 02:35:39;;;;;;;12.73;7.30;;;6.10;99.90;;;;;;4098844;28;20576;-66
2024/02/29 02:37:40;;;;;;;10.98;6.75;;;6.10;99.90;;;;;;4095173;28;20371;-67
2024/02/29 02:39:41;;;;;;;12.48;6.78;;;6.20;99.90;;;;;;4082800;29;20035;-66
2024/02/29 02:41:44;;;;;;;12.23;6.63;;;6.20;99.90;;;;;;4102124;28;20045;-67
2024/02/29 02:43:48;;;;;;;14.60;7.18;;;6.20;99.90;;;;;;4091891;28;20027;-66
2024/02/29 02:45:49;;;;;;;11.07;6.43;;;6.10;99.90;;;;;;4100586;28;20031;-66
2024/02/29 02:47:49;;;;;;;13.48;7.30;;;6.10;99.90;;;;;;4094793;28;20090;-66
2024/02/29 02:49:50;;;;;;;13.60;7.10;;;6.00;99.90;;;;;;4080983;29;20131;-68
2024/02/29 02:51:50;;;;;;;13.20;6.85;;;6.10;99.90;;;;;;4092762;28;20035;-66
2024/02/29 02:53:51;;;;;;;11.35;6.70;;;6.10;99.90;;;;;;4096053;28;20125;-66
2024/02/29 02:55:52;;;;;;;10.05;5.93;;;6.10;99.90;;;;;;4103760;28;20024;-67
2024/02/29 02:57:52;;;;;;;10.73;6.53;;;6.00;99.90;;;;;;4094449;28;20213;-67
2024/02/29 02:59:53;;;;;;;11.48;6.50;;;6.10;99.90;;;;;;4077819;29;20043;-66
2024/02/29 03:01:53;;;;;;;9.98;5.97;;;6.00;99.90;;;;;;4095834;28;20028;-66
2024/02/29 03:03:55;;;;;;;12.18;6.70;;;6.10;99.90;;;;;;4095366;28;20036;-68
2024/02/29 03:05:55;;;;;;;9.90;5.95;;;6.00;99.90;;;;;;4094364;28;20086;-67
2024/02/29 03:07:56;;;;;;;10.80;5.82;;;6.00;99.90;;;;;;4100264;28;20027;-66
2024/02/29 03:09:57;;;;;;;9.50;5.43;;;6.10;99.90;;;;;;4093495;28;20476;-67
2024/02/29 03:11:57;;;;;;;8.75;5.20;;;6.10;99.90;;;;;;4101848;28;20041;-68
2024/02/29 03:13:58;;;;;;;9.85;5.93;;;6.00;99.90;;;;;;4088002;29;20485;-67
2024/02/29 03:15:58;;;;;;;10.57;6.03;;;6.00;99.90;;;;;;4094208;28;20679;-67
2024/02/29 03:17:59;;;;;;;12.13;6.32;;;6.10;99.90;;;;;;4096837;28;20039;-68
2024/02/29 03:20:00;;;;;;;12.68;6.10;;;6.00;99.90;;;;;;4095880;28;20054;-66
2024/02/29 03:22:00;;;;;;;10.48;5.75;;;6.00;99.90;;;;;;4093883;28;20035;-66
2024/02/29 03:24:01;;;;;;;12.07;6.05;;;6.00;99.90;;;;;;4095648;28;20130;-66
2024/02/29 03:26:02;;;;;;;10.60;5.38;;;6.00;99.90;;;;;;4076179;29;20040;-67
2024/02/29 03:28:03;;;;;;;10.13;5.80;;;6.00;99.90;;;;;;4079648;29;20095;-66
2024/02/29 03:30:04;;;;;;;12.70;6.15;;;6.00;99.90;;;;;;4089708;28;20047;-69
2024/02/29 03:32:04;;;;;;;11.93;6.15;;;6.00;99.90;;;;;;4091007;28;20067;-66
2024/02/29 03:34:05;;;;;;;12.20;5.97;;;5.90;99.90;;;;;;4101243;28;20105;-66
2024/02/29 03:36:06;;;;;;;8.43;5.05;;;5.90;99.90;;;;;;4090648;28;20357;-67
2024/02/29 03:38:07;;;;;;;11.65;5.80;;;5.90;99.90;;;;;;4088337;28;20408;-68
2024/02/29 03:40:08;;;;;;;13.80;6.65;;;5.90;99.90;;;;;;4094247;28;20134;-67
2024/02/29 03:42:09;;;;;;;9.50;5.97;;;5.90;99.90;;;;;;4078026;29;20579;-66
2024/02/29 03:44:10;;;;;;;8.65;5.45;;;6.00;99.90;;;;;;4101988;28;20042;-65
2024/02/29 03:46:10;;;;;;;13.48;6.40;;;5.90;99.90;;;;;;4088725;28;20039;-65
2024/02/29 03:48:11;;;;;;;10.18;5.55;;;5.90;99.90;;;;;;4094503;28;20532;-66
2024/02/29 03:50:12;;;;;;;11.75;6.10;;;5.90;99.90;;;;;;4093216;28;20074;-68
2024/02/29 03:52:13;;;;;;;11.82;6.20;;;5.90;99.90;;;;;;4095810;28;20390;-66
2024/02/29 03:54:13;;;;;;;11.15;5.97;;;5.90;99.90;;;;;;4094916;28;20405;-67
2024/02/29 03:56:14;;;;;;;10.43;5.95;;;5.90;99.90;;;;;;4093016;28;20031;-67
2024/02/29 03:58:15;;;;;;;11.55;6.65;;;5.80;99.90;;;;;;4092839;28;20059;-66
2024/02/29 04:00:16;;;;;;;9.85;5.38;;;5.80;99.90;;;;;;4083323;29;20127;-65
2024/02/29 04:02:17;;;;;;;11.10;6.32;;;5.80;99.90;;;;;;4094849;28;20039;-65
2024/02/29 04:04:19;;;;;;;17.65;7.18;;;5.80;99.90;;;;;;4097936;28;20118;-65
2024/02/29 04:06:20;;;;;;;12.27;6.90;;;5.80;99.90;;;;;;4093352;28;20048;-67
2024/02/29 04:08:20;;;;;;;16.10;7.72;;;5.80;99.90;;;;;;4102487;28;20386;-66
2024/02/29 04:10:21;;;;;;;14.00;7.75;;;5.80;99.90;;;;;;4093879;28;20058;-66
2024/02/29 04:12:22;;;;;;;13.63;6.88;;;5.80;99.90;;;;;;4080918;28;20416;-65
2024/02/29 04:14:23;;;;;;;12.95;7.63;;;5.80;99.90;;;;;;4090486;28;20122;-67
2024/02/29 04:16:23;;;;;;;14.38;7.65;;;5.80;99.90;;;;;;4090814;28;20122;-65
2024/02/29 04:18:24;;;;;;;12.50;7.50;;;5.80;99.90;;;;;;4077342;29;20040;-66
2024/02/29 04:20:24;;;;;;;12.45;7.50;;;5.80;99.90;;;;;;4093473;28;20035;-65
2024/02/29 04:22:25;;;;;;;14.98;7.45;;;5.80;99.90;;;;;;4094603;28;20109;-66
2024/02/29 04:24:26;;;;;;;14.38;7.82;;;5.80;99.90;;;;;;4080353;29;20563;-66
2024/02/29 04:26:27;;;;;;;13.65;7.97;;;5.80;99.90;;;;;;4091428;28;20401;-67
2024/02/29 04:28:28;;;;;;;15.60;8.20;;;5.80;99.90;;;;;;4093447;28;20138;-65
2024/02/29 04:30:29;;;;;;;14.52;8.18;;;5.80;99.90;;;;;;4093846;28;20434;-66
2024/02/29 04:32:30;;;;;;;15.68;8.20;;;5.80;99.90;;;;;;4091502;28;20456;-66
2024/02/29 04:34:30;;;;;;;15.77;8.48;;;5.80;99.90;;;;;;4079018;28;20044;-65
2024/02/29 04:36:31;;;;;;;15.20;7.57;;;5.80;99.90;;;;;;4078498;28;20406;-67
2024/02/29 04:38:32;;;;;;;17.00;8.88;;;5.80;99.90;;;;;;4078286;28;20040;-66
2024/02/29 04:40:33;;;;;;;17.42;9.60;;;5.80;99.90;;;;;;4076074;29;20028;-67
2024/02/29 04:42:34;;;;;;;15.02;8.85;;;5.80;99.90;;;;;;4077418;29;20402;-66
2024/02/29 04:44:34;;;;;;;16.92;9.10;;;5.80;99.90;;;;;;4087217;28;20031;-69
2024/02/29 04:46:35;;;;;;;16.65;8.63;;;5.80;99.90;;;;;;4071230;29;20059;-66
2024/02/29 04:48:35;;;;;;;19.90;9.90;;;5.80;99.90;;;;;;4079533;28;20032;-67
2024/02/29 04:50:36;;;;;;;17.75;9.30;;;5.80;99.90;;;;;;4080184;28;20046;-66
2024/02/29 04:52:36;;;;;;;18.13;9.38;;;5.80;99.90;;;;;;4081518;28;20023;-67
2024/02/29 04:54:37;;;;;;;19.52;9.10;;;5.80;99.90;;;;;;4080613;28;20394;-66
2024/02/29 04:56:39;;;;;;;16.92;9.50;;;5.80;99.90;;;;;;4078280;28;20046;-66
2024/02/29 04:58:40;;;;;;;18.10;9.73;;;5.80;99.90;;;;;;4078158;28;20040;-67
2024/02/29 05:00:42;;;;;;;17.92;9.38;;;5.80;99.90;;;;;;4077100;28;20271;-66
2024/02/29 05:02:42;;;;;;;22.03;10.43;;;5.80;99.90;;;;;;4078299;28;20039;-66
2024/02/29 05:04:45;;;;;;;17.83;9.65;;;5.80;99.90;;;;;;4076299;28;20035;-67
2024/02/29 05:06:45;;;;;;;21.20;10.10;;;5.80;99.90;;;;;;4079074;28;20032;-65
2024/02/29 05:08:46;;;;;;;18.92;10.05;;;5.80;99.90;;;;;;4093827;28;20571;-66
2024/02/29 05:10:46;;;;;;;19.17;9.90;;;5.80;99.90;;;;;;4079826;28;20062;-66
2024/02/29 05:12:50;;;;;;;20.80;10.05;;;5.80;99.90;;;;;;4080372;28;20406;-66
2024/02/29 05:14:50;;;;;;;18.02;10.68;;;5.80;99.90;;;;;;4078336;28;20059;-66
2024/02/29 05:16:51;;;;;;;18.55;10.13;;;5.80;99.90;;;;;;4078203;28;20047;-65
2024/02/29 05:18:52;;;;;;;19.35;10.25;;;5.80;99.90;;;;;;4095749;28;20509;-66
2024/02/29 05:20:52;;;;;;;20.27;11.20;;;5.80;99.90;;;;;;4081027;28;20046;-66
2024/02/29 05:22:53;;;;;;;17.63;9.35;;;5.80;99.90;;;;;;4081309;28;20044;-66
2024/02/29 05:24:55;;;;;;;20.33;10.60;;;5.80;99.90;;;;;;4078896;28;20043;-66
2024/02/29 05:26:56;;;;;;;21.13;10.32;;;5.80;99.90;;;;;;4079366;28;20099;-66
2024/02/29 05:29:00;;;;;;;21.13;10.60;;;5.80;99.90;;;;;;4080290;28;20032;-69
2024/02/29 05:31:01;;;;;;;22.90;11.77;;;5.80;99.90;;;;;;4089165;28;20054;-67
2024/02/29 05:33:01;;;;;;;21.25;11.13;;;5.80;99.90;;;;;;4079191;29;20478;-66
2024/02/29 05:35:03;;;;;;;20.20;10.65;;;5.80;99.90;;;;;;4094748;28;20610;-68
2024/02/29 05:37:04;;;;;;;28.55;11.85;;;5.80;99.90;;;;;;4096900;28;20031;-67
2024/02/29 05:39:05;;;;;;;23.75;12.35;;;5.80;99.90;;;;;;4095731;28;20122;-67
2024/02/29 05:41:06;;;;;;;24.38;12.07;;;5.80;99.90;;;;;;4094697;28;20031;-66
2024/02/29 05:43:07;;;;;;;22.70;12.48;;;5.80;99.90;;;;;;4095715;28;20130;-73
2024/02/29 05:45:08;;;;;;;20.98;11.73;;;5.80;99.90;;;;;;4096249;28;20441;-71
2024/02/29 05:47:09;;;;;;;19.83;10.77;;;5.80;99.90;;;;;;4086298;28;20066;-71
2024/02/29 05:49:09;;;;;;;21.63;11.98;;;5.80;99.90;;;;;;4096847;28;20039;-71
2024/02/29 05:51:11;;;;;;;23.63;11.50;;;5.80;99.90;;;;;;4085226;28;20819;-75
2024/02/29 05:53:11;;;;;;;22.35;11.25;;;5.80;99.90;;;;;;4080941;29;20571;-66
2024/02/29 05:55:12;;;;;;;24.17;11.98;;;5.90;99.90;;;;;;4092169;28;20039;-67
2024/02/29 05:57:13;;;;;;;21.25;11.57;;;5.80;99.90;;;;;;4098037;28;20046;-66
2024/02/29 05:59:14;;;;;;;21.58;12.10;;;5.90;99.90;;;;;;4097432;28;20070;-66
2024/02/29 06:01:14;;;;;;;23.75;11.85;;;5.90;99.90;;;;;;4085155;28;20102;-66
2024/02/29 06:03:21;;;;;;;21.25;11.48;;;5.90;99.90;;;;;;4095277;28;20090;-67
2024/02/29 06:05:22;;;;;;;22.13;12.23;;;5.90;99.90;;;;;;4101531;28;20097;-67
2024/02/29 06:07:22;;;;;;;20.10;10.82;;;5.90;99.90;;;;;;4093601;28;20528;-67
2024/02/29 06:09:23;;;;;;;21.45;11.70;;;5.90;99.90;;;;;;4076628;28;20054;-67
2024/02/29 06:11:24;;;;;;;20.05;10.63;;;5.90;99.90;;;;;;4090864;28;20556;-66
2024/02/29 06:13:28;;;;;;;20.33;11.30;;;5.90;99.90;;;;;;4093460;28;21720;-67
2024/02/29 06:15:29;;;;;;;22.52;11.55;;;5.90;99.90;;;;;;4081691;29;20040;-68
2024/02/29 06:17:30;;;;;;;18.02;9.65;;;5.90;99.90;;;;;;4096966;28;20039;-67
2024/02/29 06:19:33;;;;;;;24.17;12.18;;;6.00;99.90;;;;;;4096401;28;20094;-68
2024/02/29 06:21:35;;;;;;;22.05;11.15;;;5.90;99.90;;;;;;4092555;28;20107;-68
2024/02/29 06:23:36;;;;;;;18.67;10.13;;;5.90;99.90;;;;;;4093087;28;20027;-67
2024/02/29 06:25:38;;;;;;;19.90;10.93;;;6.00;99.90;;;;;;4071713;28;20059;-68
2024/02/29 06:27:39;;;;;;;21.90;10.27;;;6.00;99.90;;;;;;4061569;28;20028;-68
2024/02/29 06:29:39;;;;;;;18.33;10.57;;;6.00;99.90;;;;;;4086713;28;20047;-67
2024/02/29 06:31:42;;;;;;;20.52;10.15;;;6.00;99.90;;;;;;4091560;28;20126;-68
2024/02/29 06:34:03;;;;;;;22.98;11.80;;;6.00;99.90;;;;;;4083515;28;20123;-67
2024/02/29 06:36:04;;;;;;;18.13;9.95;;;6.00;99.90;;;;;;4097935;28;20412;-67
2024/02/29 06:38:05;;;;;;;18.90;10.35;;;6.00;99.90;;;;;;4095426;28;20074;-68
2024/02/29 06:40:10;;;;;;;19.50;11.15;;;6.10;99.90;;;;;;4085078;28;20485;-69
2024/02/29 06:42:11;;;;;;;22.25;11.40;;;6.00;99.90;;;;;;4094283;28;20071;-69
2024/02/29 06:44:12;;;;;;;18.50;10.10;;;6.00;99.90;;;;;;4093547;28;20065;-67
2024/02/29 06:46:12;;;;;;;25.33;11.27;;;6.10;99.90;;;;;;4098684;28;20505;-67
2024/02/29 06:48:17;;;;;;;22.30;11.38;;;6.10;99.90;;;;;;4097325;28;20505;-68
2024/02/29 06:50:18;;;;;;;19.98;11.43;;;6.10;99.90;;;;;;4087779;28;20032;-68
2024/02/29 06:52:18;;;;;;;23.45;12.07;;;6.10;99.90;;;;;;4087104;28;20035;-68
2024/02/29 06:54:19;;;;;;;19.45;10.77;;;6.10;99.90;;;;;;4097499;28;20070;-66
2024/02/29 06:56:20;;;;;;;20.55;11.68;;;6.20;99.90;;;;;;4094404;28;20050;-68
2024/02/29 06:58:21;;;;;;;20.80;10.98;;;6.20;99.90;;;;;;4089052;28;20031;-67
2024/02/29 07:00:24;;;;;;;21.20;10.95;;;6.20;99.90;;;;;;4099265;28;20049;-67
2024/02/29 07:02:25;;;;;;;20.90;10.35;;;6.30;99.90;;;;;;4095671;28;20043;-68
2024/02/29 07:04:26;;;;;;;21.27;11.00;;;6.20;99.90;;;;;;4097404;28;21166;-69
2024/02/29 07:06:26;;;;;;;21.17;11.05;;;6.30;99.90;;;;;;4077666;29;21477;-69
2024/02/29 07:08:27;;;;;;;20.50;10.45;;;6.30;99.90;;;;;;4097267;28;20047;-69
2024/02/29 07:10:28;;;;;;;18.67;10.82;;;6.30;99.90;;;;;;4093525;28;20057;-69
2024/02/29 07:12:29;;;;;;;21.23;10.90;;;6.30;99.90;;;;;;4085374;28;20413;-70
2024/02/29 07:14:31;;;;;;;20.60;11.05;;;6.30;99.90;;;;;;4098863;28;20044;-70
2024/02/29 07:16:32;;;;;;;20.42;11.40;;;6.30;99.90;;;;;;4093381;28;20560;-70
2024/02/29 07:18:33;;;;;;;18.33;9.82;;;6.30;99.90;;;;;;4078988;28;20046;-69
2024/02/29 07:20:34;;;;;;;15.68;9.70;;;6.30;99.90;;;;;;4053279;29;20052;-69
2024/02/29 07:22:34;;;;;;;25.10;11.77;;;6.30;99.90;;;;;;4097198;28;20050;-69
2024/02/29 07:24:36;;;;;;;21.05;10.02;;;6.40;99.90;;;;;;4094102;28;20038;-69
2024/02/29 07:26:41;;;;;;;19.70;11.40;;;6.40;99.90;;;;;;4078966;28;20086;-69
2024/02/29 07:28:41;;;;;;;21.50;11.30;;;6.40;99.90;;;;;;4096525;28;20159;-69
2024/02/29 07:30:42;;;;;;;22.58;11.57;;;6.40;99.90;;;;;;4095459;28;20070;-70
2024/02/29 07:32:44;;;;;;;19.13;10.93;;;6.50;99.90;;;;;;4088011;28;20062;-69
2024/02/29 07:34:44;;;;;;;20.83;10.95;;;6.40;99.90;;;;;;4088352;28;20463;-69
2024/02/29 07:36:45;;;;;;;17.63;10.30;;;6.50;99.90;;;;;;4079137;29;20043;-69
2024/02/29 07:38:46;;;;;;;21.25;11.32;;;6.50;99.90;;;;;;4072744;28;20134;-69
2024/02/29 07:40:47;;;;;;;19.23;10.80;;;6.60;99.90;;;;;;4091701;28;20039;-69
2024/02/29 07:42:48;;;;;;;19.48;10.50;;;6.60;99.90;;;;;;4094182;28;20058;-69
2024/02/29 07:44:48;;;;;;;22.63;10.73;;;6.70;99.90;;;;;;4096521;28;21146;-69
2024/02/29 07:46:49;;;;;;;30.42;10.70;;;6.70;99.90;;;;;;4070739;28;20121;-70
2024/02/29 07:48:50;;;;;;;20.83;10.70;;;6.60;99.90;;;;;;4089008;28;20043;-70
2024/02/29 07:50:51;;;;;;;19.20;10.02;;;6.60;99.90;;;;;;4094021;28;20067;-70
2024/02/29 07:52:53;;;;;;;18.40;10.48;;;6.70;99.90;;;;;;4094532;28;20465;-69
2024/02/29 07:54:53;;;;;;;17.90;10.07;;;6.70;99.90;;;;;;4070756;29;20044;-69
2024/02/29 07:56:54;;;;;;;20.73;11.30;;;6.70;99.90;;;;;;4090115;28;20401;-70
2024/02/29 07:58:55;;;;;;;20.27;10.73;;;6.70;99.90;;;;;;4094587;28;20050;-69
2024/02/29 08:00:56;;;;;;;22.02;11.90;;;6.70;99.90;;;;;;4092642;28;20138;-69
2024/02/29 08:02:57;;;;;;;21.23;11.13;;;6.80;99.90;;;;;;4060808;29;20063;-69
2024/02/29 08:04:59;;;;;;;20.95;11.75;;;6.80;99.90;;;;;;4091561;28;20068;-70
2024/02/29 08:07:00;;;;;;;18.17;11.02;;;6.70;99.90;;;;;;4096446;28;20043;-69
2024/02/29 08:09:00;;;;;;;22.08;11.27;;;6.80;99.90;;;;;;4093332;28;20096;-69
2024/02/29 08:11:02;;;;;;;18.70;10.38;;;6.80;99.90;;;;;;4090231;28;20039;-69
2024/02/29 08:13:03;;;;;;;21.17;10.20;;;6.80;99.90;;;;;;4096422;28;20049;-69
2024/02/29 08:15:04;;;;;;;20.80;11.35;;;6.90;99.90;;;;;;4098312;28;20577;-69
2024/02/29 08:17:05;;;;;;;24.42;10.70;;;6.90;99.90;;;;;;4083402;28;20437;-68
2024/02/29 08:19:06;;;;;;;20.17;10.95;;;6.90;99.90;;;;;;4095307;28;20034;-68
2024/02/29 08:21:10;;;;;;;18.70;9.98;;;6.90;99.90;;;;;;4092935;28;20110;-68
2024/02/29 08:23:15;;;;;;;18.20;10.35;;;6.90;99.90;;;;;;4096418;28;20042;-67
2024/02/29 08:25:16;;;;;;;19.75;10.90;;;7.00;99.90;;;;;;4096195;28;20043;-68
2024/02/29 08:27:16;;;;;;;21.15;11.23;;;6.90;99.90;;;;;;4100209;28;20050;-67
2024/02/29 08:29:18;;;;;;;19.45;11.25;;;6.90;99.90;;;;;;4097982;28;20077;-68
2024/02/29 08:31:19;;;;;;;19.83;11.32;;;6.90;99.90;;;;;;4080791;28;20047;-68
2024/02/29 08:33:19;;;;;;;18.67;11.02;;;7.00;99.90;;;;;;4097091;28;20046;-69
2024/02/29 08:35:20;;;;;;;18.42;9.35;;;7.00;99.90;;;;;;4098225;28;20035;-68
2024/02/29 08:37:21;;;;;;;22.40;11.88;;;7.00;99.90;;;;;;4099489;28;20149;-68
2024/02/29 08:39:22;;;;;;;17.90;10.52;;;7.00;99.90;;;;;;4100540;28;20039;-69
2024/02/29 08:41:22;;;;;;;21.15;10.93;;;7.10;99.90;;;;;;4093472;28;20047;-68
2024/02/29 08:43:23;;;;;;;19.45;10.32;;;7.10;99.90;;;;;;4097546;28;20043;-68
2024/02/29 08:45:24;;;;;;;20.00;10.00;;;7.20;99.90;;;;;;4082987;28;20044;-69
2024/02/29 08:47:24;;;;;;;18.02;10.35;;;7.20;99.90;;;;;;4096297;28;20043;-69
2024/02/29 08:49:25;;;;;;;18.55;10.65;;;7.20;99.90;;;;;;4094482;28;20097;-69
2024/02/29 08:51:26;;;;;;;18.88;10.55;;;7.20;99.90;;;;;;4093324;28;20051;-69
2024/02/29 08:53:27;;;;;;;16.95;9.40;;;7.30;99.90;;;;;;4095525;28;20035;-68
2024/02/29 08:55:27;;;;;;;21.05;11.30;;;7.30;99.90;;;;;;4095094;28;20101;-69
2024/02/29 08:57:29;;;;;;;17.55;9.38;;;7.30;99.90;;;;;;4095532;28;20047;-69
2024/02/29 08:59:29;;;;;;;17.40;9.65;;;7.30;99.90;;;;;;4092558;28;20098;-68
2024/02/29 09:01:30;;;;;;;19.63;10.52;;;7.40;99.90;;;;;;4097747;28;20046;-68
2024/02/29 09:03:30;;;;;;;16.75;9.65;;;7.40;99.90;;;;;;4096540;28;20039;-68
2024/02/29 09:05:31;;;;;;;18.55;9.63;;;7.40;99.90;;;;;;4097795;28;20038;-69
2024/02/29 09:07:31;;;;;;;18.42;10.45;;;7.50;99.90;;;;;;4097484;28;20031;-69
2024/02/29 09:09:32;;;;;;;17.20;9.75;;;7.50;99.90;;;;;;4096000;28;20394;-69
2024/02/29 09:11:33;;;;;;;14.20;8.48;;;7.60;99.90;;;;;;4095936;28;20039;-68
2024/02/29 09:13:34;;;;;;;16.35;9.18;;;7.60;99.90;;;;;;4078469;29;20035;-68
2024/02/29 09:15:34;;;;;;;16.45;8.95;;;7.60;99.90;;;;;;4096891;28;20820;-69
2024/02/29 09:17:35;;;;;;;18.02;9.48;;;7.70;99.90;;;;;;4095103;28;20047;-68
2024/02/29 09:19:36;;;;;;;16.00;9.30;;;7.70;99.90;;;;;;4095315;28;20587;-68
2024/02/29 09:21:37;;;;;;;16.55;9.32;;;7.80;99.90;;;;;;4098715;28;20511;-69
2024/02/29 09:23:37;;;;;;;16.63;9.85;;;7.80;99.90;;;;;;4093815;28;20070;-68
2024/02/29 09:25:38;;;;;;;17.35;9.00;;;7.80;99.90;;;;;;4095199;28;20055;-69
2024/02/29 09:27:38;;;;;;;17.83;9.93;;;7.80;99.90;;;;;;4091982;28;20039;-67
2024/02/29 09:29:39;;;;;;;16.25;9.50;;;7.90;99.90;;;;;;4092861;28;20145;-68
2024/02/29 09:31:41;;;;;;;16.90;9.60;;;7.90;99.90;;;;;;4092381;28;20038;-69
2024/02/29 09:33:41;;;;;;;16.27;9.23;;;7.90;99.90;;;;;;4095965;28;20559;-69
2024/02/29 09:35:42;;;;;;;18.58;9.85;;;7.90;99.90;;;;;;4098105;28;20039;-69
2024/02/29 09:37:43;;;;;;;18.90;9.15;;;8.00;99.90;;;;;;4098157;28;20043;-69
2024/02/29 09:39:43;;;;;;;18.63;9.82;;;8.10;99.90;;;;;;4095399;28;20637;-69
2024/02/29 09:41:44;;;;;;;17.35;9.88;;;8.10;99.90;;;;;;4084000;28;20024;-69
2024/02/29 09:43:46;;;;;;;20.10;10.00;;;8.10;99.90;;;;;;4067110;29;20066;-69
2024/02/29 09:45:48;;;;;;;13.98;8.75;;;8.10;99.90;;;;;;4096984;28;20042;-69
2024/02/29 09:47:51;;;;;;;16.70;9.57;;;8.20;99.90;;;;;;4094053;28;20054;-69
2024/02/29 09:49:53;;;;;;;16.67;9.38;;;8.30;99.90;;;;;;4096711;28;20985;-69
2024/02/29 09:51:54;;;;;;;15.48;8.70;;;8.30;99.90;;;;;;4095247;28;20046;-68
2024/02/29 09:53:54;;;;;;;16.35;9.55;;;8.30;99.90;;;;;;4097568;28;20046;-69
2024/02/29 09:55:56;;;;;;;19.48;10.07;;;8.30;99.90;;;;;;4094705;28;20043;-68
2024/02/29 09:57:59;;;;;;;18.30;9.40;;;8.40;99.90;;;;;;4096716;28;20518;-69
2024/02/29 10:00:02;;;;;;;17.25;9.55;;;8.50;99.90;;;;;;4095168;28;20066;-69
2024/02/29 10:02:05;;;;;;;15.75;9.30;;;8.50;99.90;;;;;;4092027;28;20477;-69
2024/02/29 10:04:07;;;;;;;16.83;9.05;;;8.50;99.90;;;;;;4094981;28;20134;-69
2024/02/29 10:06:11;;;;;;;19.05;9.43;;;8.50;99.90;;;;;;4079931;28;20049;-69
2024/02/29 10:08:12;;;;;;;15.20;8.65;;;8.60;99.90;;;;;;4073909;29;20146;-69
2024/02/29 10:10:13;;;;;;;14.50;8.30;;;8.60;99.90;;;;;;4076569;28;20036;-69
2024/02/29 10:12:16;;;;;;;16.05;8.75;;;8.60;99.90;;;;;;4094867;28;20035;-69
2024/02/29 10:14:21;;;;;;;15.15;9.50;;;8.60;99.90;;;;;;4094095;28;20035;-69
2024/02/29 10:16:22;;;;;;;14.75;8.18;;;8.70;99.90;;;;;;4095462;28;20070;-69
2024/02/29 10:18:23;;;;;;;14.82;8.60;;;8.70;99.90;;;;;;4092345;28;20488;-69
2024/02/29 10:20:24;;;;;;;19.35;9.27;;;8.70;99.90;;;;;;4093787;28;20039;-69
2024/02/29 10:22:25;;;;;;;14.33;8.93;;;8.70;99.90;;;;;;4095206;28;20031;-69
2024/02/29 10:24:26;;;;;;;16.17;8.85;;;8.70;99.90;;;;;;4090922;28;20050;-69
2024/02/29 10:26:27;;;;;;;14.98;8.80;;;8.70;99.90;;;;;;4085084;28;20173;-69